EDDF/FRA METAR and TAF weather

Enter ICAO airport designator
Station Type Date Time Source
EDDF METAR 2021/07/30 23:50 UTC NOAA

EDDF 302350Z 22009KT CAVOK 19/10 Q1010 NOSIG


Station Type Date Time Source
EDDF Decoded METAR 2021/07/30 23:50 UTC NOAA

Frankfurt / M-Flughafen, Germany (EDDF) 50-03N 008-36E 113M
Jul 30, 2021 - 07:50 PM EDT / 2021.07.30 2350 UTC
Wind: from the SW (220 degrees) at 10 MPH (9 KT):0
Visibility: greater than 7 mile(s):0
Temperature: 66 F (19 C)
Dew Point: 50 F (10 C)
Relative Humidity: 55%
Pressure (altimeter): 29.83 in. Hg (1010 hPa)
ob: EDDF 302350Z 22009KT CAVOK 19/10 Q1010 NOSIG
cycle: 0

Station Type Date Time Source
EDDF TAF 2021/07/30 18:28 UTC NOAA

TAF EDDF 301700Z 3018/3124 23012KT 9999 FEW045
BECMG 3019/3021 21007KT
BECMG 3105/3108 24012KT
TEMPO 3109/3116 25015G25KT
BECMG 3118/3121 23004KT

Example: see airport list